sensor_id;sensor_type;location;lat;lon;timestamp;temperature;humidity
66928;DHT22;59882;45.624;11.698;2022-11-23T00:01:19;8.90;85.70
66928;DHT22;59882;45.624;11.698;2022-11-23T00:03:47;8.90;85.50
66928;DHT22;59882;45.624;11.698;2022-11-23T00:06:13;8.90;85.30
66928;DHT22;59882;45.624;11.698;2022-11-23T00:08:39;8.90;85.30
66928;DHT22;59882;45.624;11.698;2022-11-23T00:11:05;8.90;85.50
66928;DHT22;59882;45.624;11.698;2022-11-23T00:13:31;8.90;85.30
66928;DHT22;59882;45.624;11.698;2022-11-23T00:15:59;8.90;85.20
66928;DHT22;59882;45.624;11.698;2022-11-23T00:18:25;8.90;85.20
66928;DHT22;59882;45.624;11.698;2022-11-23T00:20:51;9.00;85.10
66928;DHT22;59882;45.624;11.698;2022-11-23T00:23:16;8.90;85.20
66928;DHT22;59882;45.624;11.698;2022-11-23T00:25:44;8.90;85.20
66928;DHT22;59882;45.624;11.698;2022-11-23T00:28:10;8.90;85.20
66928;DHT22;59882;45.624;11.698;2022-11-23T00:30:36;8.90;85.20
66928;DHT22;59882;45.624;11.698;2022-11-23T00:33:02;8.90;85.20
66928;DHT22;59882;45.624;11.698;2022-11-23T00:35:27;8.90;85.10
66928;DHT22;59882;45.624;11.698;2022-11-23T00:37:53;8.90;85.30
66928;DHT22;59882;45.624;11.698;2022-11-23T00:40:18;8.90;85.20
66928;DHT22;59882;45.624;11.698;2022-11-23T00:42:44;8.90;85.20
66928;DHT22;59882;45.624;11.698;2022-11-23T00:45:10;8.80;85.40
66928;DHT22;59882;45.624;11.698;2022-11-23T00:47:35;8.80;85.30
66928;DHT22;59882;45.624;11.698;2022-11-23T00:50:01;8.80;85.30
66928;DHT22;59882;45.624;11.698;2022-11-23T00:52:27;8.80;85.40
66928;DHT22;59882;45.624;11.698;2022-11-23T00:54:52;8.80;85.30
66928;DHT22;59882;45.624;11.698;2022-11-23T00:57:18;8.80;85.30
66928;DHT22;59882;45.624;11.698;2022-11-23T00:59:44;8.90;85.40
66928;DHT22;59882;45.624;11.698;2022-11-23T01:02:09;8.80;85.50
66928;DHT22;59882;45.624;11.698;2022-11-23T01:04:35;8.80;85.50
66928;DHT22;59882;45.624;11.698;2022-11-23T01:07:02;8.80;85.50
66928;DHT22;59882;45.624;11.698;2022-11-23T01:09:28;8.80;85.60
66928;DHT22;59882;45.624;11.698;2022-11-23T01:11:54;8.80;85.80
66928;DHT22;59882;45.624;11.698;2022-11-23T01:14:20;8.80;85.90
66928;DHT22;59882;45.624;11.698;2022-11-23T01:16:46;8.70;85.90
66928;DHT22;59882;45.624;11.698;2022-11-23T01:19:15;8.70;85.90
66928;DHT22;59882;45.624;11.698;2022-11-23T01:21:41;8.70;85.80
66928;DHT22;59882;45.624;11.698;2022-11-23T01:24:10;8.80;85.80
66928;DHT22;59882;45.624;11.698;2022-11-23T01:26:36;8.70;85.90
66928;DHT22;59882;45.624;11.698;2022-11-23T01:29:01;8.70;85.80
66928;DHT22;59882;45.624;11.698;2022-11-23T01:31:27;8.80;86.00
66928;DHT22;59882;45.624;11.698;2022-11-23T01:33:54;8.80;85.90
66928;DHT22;59882;45.624;11.698;2022-11-23T01:36:23;8.80;85.90
66928;DHT22;59882;45.624;11.698;2022-11-23T01:38:49;8.80;85.80
66928;DHT22;59882;45.624;11.698;2022-11-23T01:41:18;8.70;85.70
66928;DHT22;59882;45.624;11.698;2022-11-23T01:43:44;8.70;85.60
66928;DHT22;59882;45.624;11.698;2022-11-23T01:46:10;8.70;85.60
66928;DHT22;59882;45.624;11.698;2022-11-23T01:51:18;8.70;85.40
66928;DHT22;59882;45.624;11.698;2022-11-23T01:53:46;8.80;85.50
66928;DHT22;59882;45.624;11.698;2022-11-23T01:56:16;8.80;85.60
66928;DHT22;59882;45.624;11.698;2022-11-23T01:58:46;8.70;85.50
66928;DHT22;59882;45.624;11.698;2022-11-23T02:01:13;8.70;85.70
66928;DHT22;59882;45.624;11.698;2022-11-23T02:03:41;8.80;85.50
66928;DHT22;59882;45.624;11.698;2022-11-23T02:06:13;8.70;85.60
66928;DHT22;59882;45.624;11.698;2022-11-23T02:08:38;8.70;85.50
66928;DHT22;59882;45.624;11.698;2022-11-23T02:11:05;8.70;85.40
66928;DHT22;59882;45.624;11.698;2022-11-23T02:13:30;8.70;85.40
66928;DHT22;59882;45.624;11.698;2022-11-23T02:15:57;8.70;85.40
66928;DHT22;59882;45.624;11.698;2022-11-23T02:18:26;8.70;85.50
66928;DHT22;59882;45.624;11.698;2022-11-23T02:20:53;8.70;85.60
66928;DHT22;59882;45.624;11.698;2022-11-23T02:26:10;8.70;85.50
66928;DHT22;59882;45.624;11.698;2022-11-23T02:31:35;8.70;85.40
66928;DHT22;59882;45.624;11.698;2022-11-23T02:34:01;8.60;85.30
66928;DHT22;59882;45.624;11.698;2022-11-23T02:39:08;8.60;85.10
66928;DHT22;59882;45.624;11.698;2022-11-23T02:44:11;8.60;85.10
66928;DHT22;59882;45.624;11.698;2022-11-23T02:46:38;8.60;85.10
66928;DHT22;59882;45.624;11.698;2022-11-23T02:49:04;8.60;85.00
66928;DHT22;59882;45.624;11.698;2022-11-23T02:51:29;8.60;85.10
66928;DHT22;59882;45.624;11.698;2022-11-23T02:53:55;8.60;85.30
66928;DHT22;59882;45.624;11.698;2022-11-23T02:56:21;8.50;85.20
66928;DHT22;59882;45.624;11.698;2022-11-23T02:58:46;8.60;85.20
66928;DHT22;59882;45.624;11.698;2022-11-23T03:01:12;8.50;85.30
66928;DHT22;59882;45.624;11.698;2022-11-23T03:03:37;8.50;85.30
66928;DHT22;59882;45.624;11.698;2022-11-23T03:06:03;8.50;85.40
66928;DHT22;59882;45.624;11.698;2022-11-23T03:08:29;8.50;85.30
66928;DHT22;59882;45.624;11.698;2022-11-23T03:10:54;8.50;84.60
66928;DHT22;59882;45.624;11.698;2022-11-23T03:13:20;8.40;84.30
66928;DHT22;59882;45.624;11.698;2022-11-23T03:15:45;8.40;84.40
66928;DHT22;59882;45.624;11.698;2022-11-23T03:18:11;8.30;84.20
66928;DHT22;59882;45.624;11.698;2022-11-23T03:20:37;8.30;84.50
66928;DHT22;59882;45.624;11.698;2022-11-23T03:23:02;8.30;84.60
66928;DHT22;59882;45.624;11.698;2022-11-23T03:25:28;8.30;84.50
66928;DHT22;59882;45.624;11.698;2022-11-23T03:27:53;8.30;84.40
66928;DHT22;59882;45.624;11.698;2022-11-23T03:30:19;8.20;84.50
66928;DHT22;59882;45.624;11.698;2022-11-23T03:32:45;8.20;84.60
66928;DHT22;59882;45.624;11.698;2022-11-23T03:35:10;8.10;84.60
66928;DHT22;59882;45.624;11.698;2022-11-23T03:37:36;8.10;84.70
66928;DHT22;59882;45.624;11.698;2022-11-23T03:40:02;8.10;84.70
66928;DHT22;59882;45.624;11.698;2022-11-23T03:42:27;8.10;84.80
66928;DHT22;59882;45.624;11.698;2022-11-23T03:44:53;8.10;84.90
66928;DHT22;59882;45.624;11.698;2022-11-23T03:47:18;8.10;84.90
66928;DHT22;59882;45.624;11.698;2022-11-23T03:49:44;8.10;85.00
66928;DHT22;59882;45.624;11.698;2022-11-23T03:52:10;8.10;85.20
66928;DHT22;59882;45.624;11.698;2022-11-23T03:54:35;8.00;85.40
66928;DHT22;59882;45.624;11.698;2022-11-23T03:57:01;8.10;85.50
66928;DHT22;59882;45.624;11.698;2022-11-23T03:59:27;8.00;85.70
66928;DHT22;59882;45.624;11.698;2022-11-23T04:01:52;8.00;85.80
66928;DHT22;59882;45.624;11.698;2022-11-23T04:04:18;8.00;85.90
66928;DHT22;59882;45.624;11.698;2022-11-23T04:06:43;8.10;85.80
66928;DHT22;59882;45.624;11.698;2022-11-23T04:09:11;8.10;85.90
66928;DHT22;59882;45.624;11.698;2022-11-23T04:11:37;8.10;85.90
66928;DHT22;59882;45.624;11.698;2022-11-23T04:14:02;8.10;85.90
66928;DHT22;59882;45.624;11.698;2022-11-23T04:16:28;8.10;86.00
66928;DHT22;59882;45.624;11.698;2022-11-23T04:18:54;8.20;86.00
66928;DHT22;59882;45.624;11.698;2022-11-23T04:21:19;8.10;85.90
66928;DHT22;59882;45.624;11.698;2022-11-23T04:23:45;8.20;86.00
66928;DHT22;59882;45.624;11.698;2022-11-23T04:26:11;8.20;85.90
66928;DHT22;59882;45.624;11.698;2022-11-23T04:28:36;8.20;85.90
66928;DHT22;59882;45.624;11.698;2022-11-23T04:31:02;8.20;85.90
66928;DHT22;59882;45.624;11.698;2022-11-23T04:33:27;8.20;85.90
66928;DHT22;59882;45.624;11.698;2022-11-23T04:35:53;8.20;85.90
66928;DHT22;59882;45.624;11.698;2022-11-23T04:38:18;8.20;85.90
66928;DHT22;59882;45.624;11.698;2022-11-23T04:40:46;8.20;85.90
66928;DHT22;59882;45.624;11.698;2022-11-23T04:43:12;8.20;85.80
66928;DHT22;59882;45.624;11.698;2022-11-23T04:45:41;8.20;85.80
66928;DHT22;59882;45.624;11.698;2022-11-23T04:48:07;8.20;85.80
66928;DHT22;59882;45.624;11.698;2022-11-23T04:50:32;8.20;85.70
66928;DHT22;59882;45.624;11.698;2022-11-23T04:52:59;8.20;85.60
66928;DHT22;59882;45.624;11.698;2022-11-23T04:55:25;8.20;85.60
66928;DHT22;59882;45.624;11.698;2022-11-23T04:57:51;8.20;85.60
66928;DHT22;59882;45.624;11.698;2022-11-23T05:00:16;8.20;85.60
66928;DHT22;59882;45.624;11.698;2022-11-23T05:02:42;8.20;85.50
66928;DHT22;59882;45.624;11.698;2022-11-23T05:05:08;8.10;85.50
66928;DHT22;59882;45.624;11.698;2022-11-23T05:07:33;8.10;85.50
66928;DHT22;59882;45.624;11.698;2022-11-23T05:09:59;8.10;85.50
66928;DHT22;59882;45.624;11.698;2022-11-23T05:12:25;8.10;85.50
66928;DHT22;59882;45.624;11.698;2022-11-23T05:14:50;8.10;85.50
66928;DHT22;59882;45.624;11.698;2022-11-23T05:17:16;8.00;85.40
66928;DHT22;59882;45.624;11.698;2022-11-23T05:19:41;8.00;85.40
66928;DHT22;59882;45.624;11.698;2022-11-23T05:22:07;8.00;85.40
66928;DHT22;59882;45.624;11.698;2022-11-23T05:24:33;7.90;85.40
66928;DHT22;59882;45.624;11.698;2022-11-23T05:26:58;7.90;85.30
66928;DHT22;59882;45.624;11.698;2022-11-23T05:29:24;7.90;85.30
66928;DHT22;59882;45.624;11.698;2022-11-23T05:31:49;7.90;85.30
66928;DHT22;59882;45.624;11.698;2022-11-23T05:34:15;7.90;85.20
66928;DHT22;59882;45.624;11.698;2022-11-23T05:36:40;7.90;85.10
66928;DHT22;59882;45.624;11.698;2022-11-23T05:39:06;7.90;85.10
66928;DHT22;59882;45.624;11.698;2022-11-23T05:41:32;7.90;85.10
66928;DHT22;59882;45.624;11.698;2022-11-23T05:43:57;7.80;85.20
66928;DHT22;59882;45.624;11.698;2022-11-23T05:46:23;7.80;85.30
66928;DHT22;59882;45.624;11.698;2022-11-23T05:48:48;7.80;85.40
66928;DHT22;59882;45.624;11.698;2022-11-23T05:51:14;7.80;85.40
66928;DHT22;59882;45.624;11.698;2022-11-23T05:53:40;7.70;85.50
66928;DHT22;59882;45.624;11.698;2022-11-23T05:56:05;7.70;85.40
66928;DHT22;59882;45.624;11.698;2022-11-23T05:58:31;7.60;85.40
66928;DHT22;59882;45.624;11.698;2022-11-23T06:01:00;7.70;85.30
66928;DHT22;59882;45.624;11.698;2022-11-23T06:03:25;7.60;85.40
66928;DHT22;59882;45.624;11.698;2022-11-23T06:05:51;7.60;85.40
66928;DHT22;59882;45.624;11.698;2022-11-23T06:08:18;7.50;85.30
66928;DHT22;59882;45.624;11.698;2022-11-23T06:10:44;7.50;85.30
66928;DHT22;59882;45.624;11.698;2022-11-23T06:13:09;7.40;85.20
66928;DHT22;59882;45.624;11.698;2022-11-23T06:15:35;7.40;85.40
66928;DHT22;59882;45.624;11.698;2022-11-23T06:18:01;7.30;85.60
66928;DHT22;59882;45.624;11.698;2022-11-23T06:20:27;7.30;85.60
66928;DHT22;59882;45.624;11.698;2022-11-23T06:22:54;7.30;85.50
66928;DHT22;59882;45.624;11.698;2022-11-23T06:25:20;7.30;85.60
66928;DHT22;59882;45.624;11.698;2022-11-23T06:27:58;7.30;85.50
66928;DHT22;59882;45.624;11.698;2022-11-23T06:30:24;7.20;85.50
66928;DHT22;59882;45.624;11.698;2022-11-23T06:32:50;7.20;85.40
66928;DHT22;59882;45.624;11.698;2022-11-23T06:35:17;7.20;85.60
66928;DHT22;59882;45.624;11.698;2022-11-23T06:37:43;7.10;85.60
66928;DHT22;59882;45.624;11.698;2022-11-23T06:40:10;7.10;85.50
66928;DHT22;59882;45.624;11.698;2022-11-23T06:42:36;7.10;85.60
66928;DHT22;59882;45.624;11.698;2022-11-23T06:45:02;7.10;85.50
66928;DHT22;59882;45.624;11.698;2022-11-23T06:47:28;7.10;85.50
66928;DHT22;59882;45.624;11.698;2022-11-23T06:49:54;7.10;85.40
66928;DHT22;59882;45.624;11.698;2022-11-23T06:52:19;7.10;85.50
66928;DHT22;59882;45.624;11.698;2022-11-23T06:54:45;7.10;85.40
66928;DHT22;59882;45.624;11.698;2022-11-23T06:57:11;7.10;85.30
66928;DHT22;59882;45.624;11.698;2022-11-23T06:59:36;7.10;85.00
66928;DHT22;59882;45.624;11.698;2022-11-23T07:02:02;7.10;84.60
66928;DHT22;59882;45.624;11.698;2022-11-23T07:04:28;7.10;84.80
66928;DHT22;59882;45.624;11.698;2022-11-23T07:06:53;7.00;84.80
66928;DHT22;59882;45.624;11.698;2022-11-23T07:09:19;6.90;85.00
66928;DHT22;59882;45.624;11.698;2022-11-23T07:11:45;6.90;85.10
66928;DHT22;59882;45.624;11.698;2022-11-23T07:14:10;6.90;85.10
66928;DHT22;59882;45.624;11.698;2022-11-23T07:16:36;6.90;85.10
66928;DHT22;59882;45.624;11.698;2022-11-23T07:19:02;6.90;85.10
66928;DHT22;59882;45.624;11.698;2022-11-23T07:21:28;6.90;84.60
66928;DHT22;59882;45.624;11.698;2022-11-23T07:23:53;6.80;84.70
66928;DHT22;59882;45.624;11.698;2022-11-23T07:26:19;6.80;84.70
66928;DHT22;59882;45.624;11.698;2022-11-23T07:28:45;6.80;84.80
66928;DHT22;59882;45.624;11.698;2022-11-23T07:31:11;6.80;84.80
66928;DHT22;59882;45.624;11.698;2022-11-23T07:33:36;6.80;84.50
66928;DHT22;59882;45.624;11.698;2022-11-23T07:36:02;6.80;84.60
66928;DHT22;59882;45.624;11.698;2022-11-23T07:38:29;6.90;84.30
66928;DHT22;59882;45.624;11.698;2022-11-23T07:40:55;6.90;84.30
66928;DHT22;59882;45.624;11.698;2022-11-23T07:43:21;6.90;84.20
66928;DHT22;59882;45.624;11.698;2022-11-23T07:45:46;6.90;83.60
66928;DHT22;59882;45.624;11.698;2022-11-23T07:48:12;7.00;83.60
66928;DHT22;59882;45.624;11.698;2022-11-23T07:50:38;7.00;83.50
66928;DHT22;59882;45.624;11.698;2022-11-23T07:53:05;7.00;83.40
66928;DHT22;59882;45.624;11.698;2022-11-23T07:55:32;7.10;83.10
66928;DHT22;59882;45.624;11.698;2022-11-23T07:57:58;7.10;83.20
66928;DHT22;59882;45.624;11.698;2022-11-23T08:00:25;7.10;83.30
66928;DHT22;59882;45.624;11.698;2022-11-23T08:02:51;7.20;83.00
66928;DHT22;59882;45.624;11.698;2022-11-23T08:05:17;7.20;82.90
66928;DHT22;59882;45.624;11.698;2022-11-23T08:07:43;7.30;83.10
66928;DHT22;59882;45.624;11.698;2022-11-23T08:10:10;7.30;82.90
66928;DHT22;59882;45.624;11.698;2022-11-23T08:12:36;7.30;83.20
66928;DHT22;59882;45.624;11.698;2022-11-23T08:15:02;7.40;83.30
66928;DHT22;59882;45.624;11.698;2022-11-23T08:17:28;7.50;83.60
66928;DHT22;59882;45.624;11.698;2022-11-23T08:19:53;7.50;84.00
66928;DHT22;59882;45.624;11.698;2022-11-23T08:22:19;7.60;84.50
66928;DHT22;59882;45.624;11.698;2022-11-23T08:24:44;7.60;84.30
66928;DHT22;59882;45.624;11.698;2022-11-23T08:27:10;7.70;83.70
66928;DHT22;59882;45.624;11.698;2022-11-23T08:29:36;7.70;83.80
66928;DHT22;59882;45.624;11.698;2022-11-23T08:32:01;7.80;83.90
66928;DHT22;59882;45.624;11.698;2022-11-23T08:34:27;7.80;83.60
66928;DHT22;59882;45.624;11.698;2022-11-23T08:36:53;7.80;83.80
66928;DHT22;59882;45.624;11.698;2022-11-23T08:39:18;7.80;83.70
66928;DHT22;59882;45.624;11.698;2022-11-23T08:41:44;7.90;83.50
66928;DHT22;59882;45.624;11.698;2022-11-23T08:44:10;7.90;83.50
66928;DHT22;59882;45.624;11.698;2022-11-23T08:46:37;7.90;83.90
66928;DHT22;59882;45.624;11.698;2022-11-23T08:49:03;7.90;83.90
66928;DHT22;59882;45.624;11.698;2022-11-23T08:51:29;7.90;84.00
66928;DHT22;59882;45.624;11.698;2022-11-23T08:53:55;7.90;84.00
66928;DHT22;59882;45.624;11.698;2022-11-23T08:56:21;8.00;84.10
66928;DHT22;59882;45.624;11.698;2022-11-23T08:58:46;8.10;84.30
66928;DHT22;59882;45.624;11.698;2022-11-23T09:01:14;8.10;84.60
66928;DHT22;59882;45.624;11.698;2022-11-23T09:03:40;8.20;84.60
66928;DHT22;59882;45.624;11.698;2022-11-23T09:06:06;8.20;84.50
66928;DHT22;59882;45.624;11.698;2022-11-23T09:08:32;8.30;84.10
66928;DHT22;59882;45.624;11.698;2022-11-23T09:10:59;8.30;84.70
66928;DHT22;59882;45.624;11.698;2022-11-23T09:13:25;8.40;84.80
66928;DHT22;59882;45.624;11.698;2022-11-23T09:15:51;8.40;84.70
66928;DHT22;59882;45.624;11.698;2022-11-23T09:18:16;8.50;84.20
66928;DHT22;59882;45.624;11.698;2022-11-23T09:20:42;8.60;83.50
66928;DHT22;59882;45.624;11.698;2022-11-23T09:23:08;8.70;83.30
66928;DHT22;59882;45.624;11.698;2022-11-23T09:25:35;8.70;82.80
66928;DHT22;59882;45.624;11.698;2022-11-23T09:28:01;8.80;83.30
66928;DHT22;59882;45.624;11.698;2022-11-23T09:30:29;8.80;83.50
66928;DHT22;59882;45.624;11.698;2022-11-23T09:32:57;8.90;83.70
66928;DHT22;59882;45.624;11.698;2022-11-23T09:35:23;8.90;83.70
66928;DHT22;59882;45.624;11.698;2022-11-23T09:37:55;9.00;84.00
66928;DHT22;59882;45.624;11.698;2022-11-23T09:40:21;9.10;81.10
66928;DHT22;59882;45.624;11.698;2022-11-23T09:45:39;9.30;81.90
66928;DHT22;59882;45.624;11.698;2022-11-23T09:48:36;9.40;81.10
66928;DHT22;59882;45.624;11.698;2022-11-23T09:51:14;9.40;79.60
66928;DHT22;59882;45.624;11.698;2022-11-23T09:56:44;9.60;79.60
66928;DHT22;59882;45.624;11.698;2022-11-23T10:01:55;9.90;78.10
66928;DHT22;59882;45.624;11.698;2022-11-23T10:04:21;9.90;77.90
66928;DHT22;59882;45.624;11.698;2022-11-23T10:12:48;10.20;74.90
66928;DHT22;59882;45.624;11.698;2022-11-23T10:24:03;10.60;74.50
66928;DHT22;59882;45.624;11.698;2022-11-23T10:26:30;10.60;73.90
66928;DHT22;59882;45.624;11.698;2022-11-23T10:28:57;10.70;74.60
66928;DHT22;59882;45.624;11.698;2022-11-23T10:31:27;10.80;75.50
66928;DHT22;59882;45.624;11.698;2022-11-23T10:34:12;10.80;74.00
66928;DHT22;59882;45.624;11.698;2022-11-23T10:36:39;10.90;70.20
66928;DHT22;59882;45.624;11.698;2022-11-23T10:39:21;11.00;71.50
66928;DHT22;59882;45.624;11.698;2022-11-23T10:41:49;11.00;71.20
66928;DHT22;59882;45.624;11.698;2022-11-23T10:44:30;11.10;70.70
66928;DHT22;59882;45.624;11.698;2022-11-23T10:46:57;11.20;69.10
66928;DHT22;59882;45.624;11.698;2022-11-23T10:49:26;11.30;69.20
66928;DHT22;59882;45.624;11.698;2022-11-23T10:54:26;11.30;70.00
66928;DHT22;59882;45.624;11.698;2022-11-23T10:56:52;11.40;69.30
66928;DHT22;59882;45.624;11.698;2022-11-23T10:59:34;11.40;69.90
66928;DHT22;59882;45.624;11.698;2022-11-23T11:02:18;11.50;68.00
66928;DHT22;59882;45.624;11.698;2022-11-23T11:04:46;11.60;67.60
66928;DHT22;59882;45.624;11.698;2022-11-23T11:09:48;11.70;67.00
66928;DHT22;59882;45.624;11.698;2022-11-23T11:12:18;11.80;65.00
66928;DHT22;59882;45.624;11.698;2022-11-23T11:15:18;11.80;66.20
66928;DHT22;59882;45.624;11.698;2022-11-23T11:17:43;11.90;65.60
66928;DHT22;59882;45.624;11.698;2022-11-23T11:20:33;11.90;66.40
66928;DHT22;59882;45.624;11.698;2022-11-23T11:23:02;11.90;66.70
66928;DHT22;59882;45.624;11.698;2022-11-23T11:25:33;12.10;66.70
66928;DHT22;59882;45.624;11.698;2022-11-23T11:28:17;12.10;66.10
66928;DHT22;59882;45.624;11.698;2022-11-23T11:36:40;12.30;66.30
66928;DHT22;59882;45.624;11.698;2022-11-23T11:39:14;12.40;64.30
66928;DHT22;59882;45.624;11.698;2022-11-23T11:41:43;12.40;65.10
66928;DHT22;59882;45.624;11.698;2022-11-23T11:44:18;12.60;64.00
66928;DHT22;59882;45.624;11.698;2022-11-23T11:46:50;12.70;63.00
66928;DHT22;59882;45.624;11.698;2022-11-23T11:49:34;12.80;61.00
66928;DHT22;59882;45.624;11.698;2022-11-23T11:52:17;12.90;63.10
66928;DHT22;59882;45.624;11.698;2022-11-23T11:54:52;13.00;61.90
66928;DHT22;59882;45.624;11.698;2022-11-23T11:57:25;13.30;61.80
66928;DHT22;59882;45.624;11.698;2022-11-23T11:59:56;14.40;57.30
66928;DHT22;59882;45.624;11.698;2022-11-23T12:02:36;16.30;55.80
66928;DHT22;59882;45.624;11.698;2022-11-23T12:10:25;22.30;43.20
66928;DHT22;59882;45.624;11.698;2022-11-23T12:12:52;24.00;40.40
66928;DHT22;59882;45.624;11.698;2022-11-23T12:15:20;25.50;30.90
66928;DHT22;59882;45.624;11.698;2022-11-23T12:20:16;27.30;30.70
66928;DHT22;59882;45.624;11.698;2022-11-23T12:25:32;28.50;24.40
66928;DHT22;59882;45.624;11.698;2022-11-23T12:31:09;29.10;26.60
66928;DHT22;59882;45.624;11.698;2022-11-23T12:50:19;30.60;24.90
66928;DHT22;59882;45.624;11.698;2022-11-23T12:58:04;31.10;23.80
66928;DHT22;59882;45.624;11.698;2022-11-23T13:00:36;31.00;21.50
66928;DHT22;59882;45.624;11.698;2022-11-23T13:03:38;30.90;24.00
66928;DHT22;59882;45.624;11.698;2022-11-23T13:14:15;30.50;21.80
66928;DHT22;59882;45.624;11.698;2022-11-23T13:21:57;30.50;22.10
66928;DHT22;59882;45.624;11.698;2022-11-23T13:24:31;30.40;22.60
66928;DHT22;59882;45.624;11.698;2022-11-23T13:34:58;30.00;24.00
66928;DHT22;59882;45.624;11.698;2022-11-23T13:37:24;30.00;23.90
66928;DHT22;59882;45.624;11.698;2022-11-23T13:42:16;29.70;23.20
66928;DHT22;59882;45.624;11.698;2022-11-23T13:44:42;29.50;23.20
66928;DHT22;59882;45.624;11.698;2022-11-23T13:57:40;27.50;24.80
66928;DHT22;59882;45.624;11.698;2022-11-23T14:11:51;22.70;31.60
66928;DHT22;59882;45.624;11.698;2022-11-23T14:14:22;21.90;32.80
66928;DHT22;59882;45.624;11.698;2022-11-23T14:25:51;19.70;35.70
66928;DHT22;59882;45.624;11.698;2022-11-23T14:28:28;19.20;37.70
66928;DHT22;59882;45.624;11.698;2022-11-23T14:34:04;18.40;41.00
66928;DHT22;59882;45.624;11.698;2022-11-23T14:42:17;17.40;43.20
66928;DHT22;59882;45.624;11.698;2022-11-23T14:44:45;17.20;44.40
66928;DHT22;59882;45.624;11.698;2022-11-23T14:47:12;16.90;45.10
66928;DHT22;59882;45.624;11.698;2022-11-23T14:49:48;16.80;45.70
66928;DHT22;59882;45.624;11.698;2022-11-23T14:52:27;16.50;45.70
66928;DHT22;59882;45.624;11.698;2022-11-23T14:54:55;16.40;47.00
66928;DHT22;59882;45.624;11.698;2022-11-23T14:57:27;16.30;46.80
66928;DHT22;59882;45.624;11.698;2022-11-23T14:59:57;16.10;48.60
66928;DHT22;59882;45.624;11.698;2022-11-23T15:02:37;15.90;49.60
66928;DHT22;59882;45.624;11.698;2022-11-23T15:05:06;15.80;50.30
66928;DHT22;59882;45.624;11.698;2022-11-23T15:07:52;15.60;51.10
66928;DHT22;59882;45.624;11.698;2022-11-23T15:10:22;15.40;50.20
66928;DHT22;59882;45.624;11.698;2022-11-23T15:12:49;15.20;52.20
66928;DHT22;59882;45.624;11.698;2022-11-23T15:15:26;15.10;52.60
66928;DHT22;59882;45.624;11.698;2022-11-23T15:17:59;14.90;52.80
66928;DHT22;59882;45.624;11.698;2022-11-23T15:20:33;14.80;52.00
66928;DHT22;59882;45.624;11.698;2022-11-23T15:23:00;14.80;52.50
66928;DHT22;59882;45.624;11.698;2022-11-23T15:25:27;14.70;52.70
66928;DHT22;59882;45.624;11.698;2022-11-23T15:27:53;14.60;53.00
66928;DHT22;59882;45.624;11.698;2022-11-23T15:30:27;14.50;53.30
66928;DHT22;59882;45.624;11.698;2022-11-23T15:32:54;14.40;53.70
66928;DHT22;59882;45.624;11.698;2022-11-23T15:35:23;14.30;54.10
66928;DHT22;59882;45.624;11.698;2022-11-23T15:37:50;14.20;54.60
66928;DHT22;59882;45.624;11.698;2022-11-23T15:40:18;14.10;54.90
66928;DHT22;59882;45.624;11.698;2022-11-23T15:42:45;14.00;55.20
66928;DHT22;59882;45.624;11.698;2022-11-23T15:46:16;13.90;55.50
66928;DHT22;59882;45.624;11.698;2022-11-23T15:48:28;13.90;55.80
66928;DHT22;59882;45.624;11.698;2022-11-23T15:51:00;13.80;56.20
66928;DHT22;59882;45.624;11.698;2022-11-23T15:56:02;13.60;58.40
66928;DHT22;59882;45.624;11.698;2022-11-23T15:58:32;13.40;57.30
66928;DHT22;59882;45.624;11.698;2022-11-23T16:01:02;13.40;57.50
66928;DHT22;59882;45.624;11.698;2022-11-23T16:08:43;13.10;58.20
66928;DHT22;59882;45.624;11.698;2022-11-23T16:11:19;13.10;58.50
66928;DHT22;59882;45.624;11.698;2022-11-23T16:13:45;13.00;58.70
66928;DHT22;59882;45.624;11.698;2022-11-23T16:16:16;12.90;58.90
66928;DHT22;59882;45.624;11.698;2022-11-23T16:18:44;12.90;59.60
66928;DHT22;59882;45.624;11.698;2022-11-23T16:21:16;12.80;59.30
66928;DHT22;59882;45.624;11.698;2022-11-23T16:26:11;12.70;59.80
66928;DHT22;59882;45.624;11.698;2022-11-23T16:28:38;12.60;60.00
66928;DHT22;59882;45.624;11.698;2022-11-23T16:31:05;12.60;60.20
66928;DHT22;59882;45.624;11.698;2022-11-23T16:33:31;12.50;60.50
66928;DHT22;59882;45.624;11.698;2022-11-23T16:35:56;12.40;60.70
66928;DHT22;59882;45.624;11.698;2022-11-23T16:38:22;12.40;60.90
66928;DHT22;59882;45.624;11.698;2022-11-23T16:40:49;12.40;61.20
66928;DHT22;59882;45.624;11.698;2022-11-23T16:43:16;12.30;61.40
66928;DHT22;59882;45.624;11.698;2022-11-23T16:45:44;12.30;61.90
66928;DHT22;59882;45.624;11.698;2022-11-23T16:48:36;12.20;62.40
66928;DHT22;59882;45.624;11.698;2022-11-23T16:51:02;12.10;62.20
66928;DHT22;59882;45.624;11.698;2022-11-23T16:53:28;12.10;62.60
66928;DHT22;59882;45.624;11.698;2022-11-23T16:55:56;12.00;62.60
66928;DHT22;59882;45.624;11.698;2022-11-23T16:58:23;11.90;62.90
66928;DHT22;59882;45.624;11.698;2022-11-23T17:00:50;11.90;63.20
66928;DHT22;59882;45.624;11.698;2022-11-23T17:03:17;11.90;63.20
66928;DHT22;59882;45.624;11.698;2022-11-23T17:05:44;11.80;64.80
66928;DHT22;59882;45.624;11.698;2022-11-23T17:08:10;11.70;63.90
66928;DHT22;59882;45.624;11.698;2022-11-23T17:10:39;11.60;65.20
66928;DHT22;59882;45.624;11.698;2022-11-23T17:13:22;11.50;65.30
66928;DHT22;59882;45.624;11.698;2022-11-23T17:15:50;11.30;65.10
66928;DHT22;59882;45.624;11.698;2022-11-23T17:18:15;11.20;66.00
66928;DHT22;59882;45.624;11.698;2022-11-23T17:20:42;11.10;66.40
66928;DHT22;59882;45.624;11.698;2022-11-23T17:23:08;11.00;66.00
66928;DHT22;59882;45.624;11.698;2022-11-23T17:25:34;11.00;66.50
66928;DHT22;59882;45.624;11.698;2022-11-23T17:28:00;10.90;66.80
66928;DHT22;59882;45.624;11.698;2022-11-23T17:30:26;10.90;65.90
66928;DHT22;59882;45.624;11.698;2022-11-23T17:32:53;10.80;66.90
66928;DHT22;59882;45.624;11.698;2022-11-23T17:35:19;10.80;66.40
66928;DHT22;59882;45.624;11.698;2022-11-23T17:37:45;10.80;66.40
66928;DHT22;59882;45.624;11.698;2022-11-23T17:40:19;10.80;66.30
66928;DHT22;59882;45.624;11.698;2022-11-23T17:42:46;10.80;66.60
66928;DHT22;59882;45.624;11.698;2022-11-23T17:45:12;10.80;66.50
66928;DHT22;59882;45.624;11.698;2022-11-23T17:47:40;10.80;66.50
66928;DHT22;59882;45.624;11.698;2022-11-23T17:50:11;10.80;66.40
66928;DHT22;59882;45.624;11.698;2022-11-23T17:52:37;10.80;66.50
66928;DHT22;59882;45.624;11.698;2022-11-23T17:55:07;10.80;66.60
66928;DHT22;59882;45.624;11.698;2022-11-23T17:57:33;10.70;66.50
66928;DHT22;59882;45.624;11.698;2022-11-23T17:59:59;10.70;66.60
66928;DHT22;59882;45.624;11.698;2022-11-23T18:02:24;10.60;67.10
66928;DHT22;59882;45.624;11.698;2022-11-23T18:04:50;10.60;68.10
66928;DHT22;59882;45.624;11.698;2022-11-23T18:07:15;10.50;67.90